sensor_id;sensor_type;location;lat;lon;timestamp;P1;durP1;ratioP1;P2;durP2;ratioP2
56457;SDS011;42360;42.918;12.366;2024-02-28T00:01:59;6.10;;;2.85;;
56457;SDS011;42360;42.918;12.366;2024-02-28T00:04:24;5.30;;;2.90;;
56457;SDS011;42360;42.918;12.366;2024-02-28T00:06:49;3.78;;;1.98;;
56457;SDS011;42360;42.918;12.366;2024-02-28T00:09:15;7.35;;;1.88;;
56457;SDS011;42360;42.918;12.366;2024-02-28T00:11:44;4.30;;;1.88;;
56457;SDS011;42360;42.918;12.366;2024-02-28T00:14:10;6.95;;;2.65;;
56457;SDS011;42360;42.918;12.366;2024-02-28T00:16:36;7.78;;;1.85;;
56457;SDS011;42360;42.918;12.366;2024-02-28T00:19:01;5.03;;;1.67;;
56457;SDS011;42360;42.918;12.366;2024-02-28T00:21:27;6.22;;;2.05;;
56457;SDS011;42360;42.918;12.366;2024-02-28T00:23:52;5.70;;;1.70;;
56457;SDS011;42360;42.918;12.366;2024-02-28T00:26:18;4.38;;;1.70;;
56457;SDS011;42360;42.918;12.366;2024-02-28T00:28:43;8.20;;;2.03;;
56457;SDS011;42360;42.918;12.366;2024-02-28T00:31:09;7.82;;;1.70;;
56457;SDS011;42360;42.918;12.366;2024-02-28T00:33:34;7.25;;;2.20;;
56457;SDS011;42360;42.918;12.366;2024-02-28T00:36:00;4.68;;;2.10;;
56457;SDS011;42360;42.918;12.366;2024-02-28T00:38:25;5.03;;;2.33;;
56457;SDS011;42360;42.918;12.366;2024-02-28T00:40:52;7.18;;;2.47;;
56457;SDS011;42360;42.918;12.366;2024-02-28T00:43:17;5.25;;;2.22;;
56457;SDS011;42360;42.918;12.366;2024-02-28T00:45:43;9.27;;;4.15;;
56457;SDS011;42360;42.918;12.366;2024-02-28T00:48:09;5.13;;;2.55;;
56457;SDS011;42360;42.918;12.366;2024-02-28T00:50:34;7.18;;;3.15;;
56457;SDS011;42360;42.918;12.366;2024-02-28T00:53:00;4.47;;;2.60;;
56457;SDS011;42360;42.918;12.366;2024-02-28T00:55:25;6.72;;;2.60;;
56457;SDS011;42360;42.918;12.366;2024-02-28T00:57:51;5.53;;;2.88;;
56457;SDS011;42360;42.918;12.366;2024-02-28T01:00:16;6.35;;;3.08;;
56457;SDS011;42360;42.918;12.366;2024-02-28T01:02:42;5.32;;;2.42;;
56457;SDS011;42360;42.918;12.366;2024-02-28T01:05:08;6.35;;;2.95;;
56457;SDS011;42360;42.918;12.366;2024-02-28T01:07:33;3.80;;;2.53;;
56457;SDS011;42360;42.918;12.366;2024-02-28T01:09:59;6.60;;;2.85;;
56457;SDS011;42360;42.918;12.366;2024-02-28T01:12:24;5.57;;;2.90;;
56457;SDS011;42360;42.918;12.366;2024-02-28T01:14:50;4.72;;;2.25;;
56457;SDS011;42360;42.918;12.366;2024-02-28T01:17:15;12.25;;;3.85;;
56457;SDS011;42360;42.918;12.366;2024-02-28T01:19:40;5.30;;;2.10;;
56457;SDS011;42360;42.918;12.366;2024-02-28T01:22:06;5.32;;;2.60;;
56457;SDS011;42360;42.918;12.366;2024-02-28T01:24:31;5.55;;;2.58;;
56457;SDS011;42360;42.918;12.366;2024-02-28T01:26:58;6.25;;;2.72;;
56457;SDS011;42360;42.918;12.366;2024-02-28T01:29:24;5.03;;;2.58;;
56457;SDS011;42360;42.918;12.366;2024-02-28T01:31:49;4.95;;;2.38;;
56457;SDS011;42360;42.918;12.366;2024-02-28T01:34:15;6.60;;;3.63;;
56457;SDS011;42360;42.918;12.366;2024-02-28T01:36:40;11.25;;;5.40;;
56457;SDS011;42360;42.918;12.366;2024-02-28T01:39:06;6.45;;;3.67;;
56457;SDS011;42360;42.918;12.366;2024-02-28T01:41:31;6.13;;;3.30;;
56457;SDS011;42360;42.918;12.366;2024-02-28T01:43:56;8.07;;;3.30;;
56457;SDS011;42360;42.918;12.366;2024-02-28T01:46:24;6.90;;;2.70;;
56457;SDS011;42360;42.918;12.366;2024-02-28T01:48:51;4.95;;;2.78;;
56457;SDS011;42360;42.918;12.366;2024-02-28T01:51:17;6.85;;;2.88;;
56457;SDS011;42360;42.918;12.366;2024-02-28T01:53:44;4.53;;;2.47;;
56457;SDS011;42360;42.918;12.366;2024-02-28T01:56:10;5.68;;;3.08;;
56457;SDS011;42360;42.918;12.366;2024-02-28T01:58:37;5.85;;;3.15;;
56457;SDS011;42360;42.918;12.366;2024-02-28T02:01:02;6.47;;;2.60;;
56457;SDS011;42360;42.918;12.366;2024-02-28T02:03:28;5.53;;;2.55;;
56457;SDS011;42360;42.918;12.366;2024-02-28T02:05:54;5.13;;;2.72;;
56457;SDS011;42360;42.918;12.366;2024-02-28T02:08:19;6.22;;;2.50;;
56457;SDS011;42360;42.918;12.366;2024-02-28T02:10:45;8.85;;;2.25;;
56457;SDS011;42360;42.918;12.366;2024-02-28T02:13:10;5.15;;;3.03;;
56457;SDS011;42360;42.918;12.366;2024-02-28T02:15:35;4.53;;;2.38;;
56457;SDS011;42360;42.918;12.366;2024-02-28T02:18:01;4.70;;;2.45;;
56457;SDS011;42360;42.918;12.366;2024-02-28T02:20:28;6.70;;;2.17;;
56457;SDS011;42360;42.918;12.366;2024-02-28T02:22:55;8.43;;;2.30;;
56457;SDS011;42360;42.918;12.366;2024-02-28T02:25:20;5.93;;;2.60;;
56457;SDS011;42360;42.918;12.366;2024-02-28T02:27:46;5.30;;;2.50;;
56457;SDS011;42360;42.918;12.366;2024-02-28T02:30:12;3.25;;;2.47;;
56457;SDS011;42360;42.918;12.366;2024-02-28T02:32:37;6.00;;;2.50;;
56457;SDS011;42360;42.918;12.366;2024-02-28T02:35:03;5.78;;;2.70;;
56457;SDS011;42360;42.918;12.366;2024-02-28T02:37:28;5.00;;;2.70;;
56457;SDS011;42360;42.918;12.366;2024-02-28T02:39:54;7.18;;;3.45;;
56457;SDS011;42360;42.918;12.366;2024-02-28T02:42:19;3.55;;;2.67;;
56457;SDS011;42360;42.918;12.366;2024-02-28T02:44:45;9.77;;;3.13;;
56457;SDS011;42360;42.918;12.366;2024-02-28T02:47:10;7.50;;;4.00;;
56457;SDS011;42360;42.918;12.366;2024-02-28T02:49:36;7.75;;;3.05;;
56457;SDS011;42360;42.918;12.366;2024-02-28T02:52:01;7.57;;;3.17;;
56457;SDS011;42360;42.918;12.366;2024-02-28T02:54:26;4.70;;;2.70;;
56457;SDS011;42360;42.918;12.366;2024-02-28T02:56:52;5.57;;;2.90;;
56457;SDS011;42360;42.918;12.366;2024-02-28T02:59:17;6.05;;;3.33;;
56457;SDS011;42360;42.918;12.366;2024-02-28T03:01:46;3.45;;;2.83;;
56457;SDS011;42360;42.918;12.366;2024-02-28T03:04:12;3.95;;;3.25;;
56457;SDS011;42360;42.918;12.366;2024-02-28T03:06:37;6.30;;;3.45;;
56457;SDS011;42360;42.918;12.366;2024-02-28T03:09:03;6.05;;;3.40;;
56457;SDS011;42360;42.918;12.366;2024-02-28T03:11:28;5.50;;;3.58;;
56457;SDS011;42360;42.918;12.366;2024-02-28T03:13:54;5.28;;;3.25;;
56457;SDS011;42360;42.918;12.366;2024-02-28T03:16:19;6.25;;;3.47;;
56457;SDS011;42360;42.918;12.366;2024-02-28T03:18:45;7.30;;;3.33;;
56457;SDS011;42360;42.918;12.366;2024-02-28T03:21:10;4.40;;;3.10;;
56457;SDS011;42360;42.918;12.366;2024-02-28T03:23:36;6.15;;;3.17;;
56457;SDS011;42360;42.918;12.366;2024-02-28T03:26:01;6.00;;;3.00;;
56457;SDS011;42360;42.918;12.366;2024-02-28T03:28:28;3.78;;;2.63;;
56457;SDS011;42360;42.918;12.366;2024-02-28T03:30:54;9.45;;;4.07;;
56457;SDS011;42360;42.918;12.366;2024-02-28T03:33:19;6.05;;;3.10;;
56457;SDS011;42360;42.918;12.366;2024-02-28T03:35:45;6.93;;;2.80;;
56457;SDS011;42360;42.918;12.366;2024-02-28T03:38:10;8.25;;;3.13;;
56457;SDS011;42360;42.918;12.366;2024-02-28T03:40:36;6.07;;;2.47;;
56457;SDS011;42360;42.918;12.366;2024-02-28T03:43:02;8.80;;;2.38;;
56457;SDS011;42360;42.918;12.366;2024-02-28T03:45:28;4.68;;;2.20;;
56457;SDS011;42360;42.918;12.366;2024-02-28T03:47:54;4.20;;;2.30;;
56457;SDS011;42360;42.918;12.366;2024-02-28T03:50:20;5.05;;;2.05;;
56457;SDS011;42360;42.918;12.366;2024-02-28T03:52:45;7.75;;;2.70;;
56457;SDS011;42360;42.918;12.366;2024-02-28T03:55:10;6.57;;;2.38;;
56457;SDS011;42360;42.918;12.366;2024-02-28T03:57:36;6.90;;;2.42;;
56457;SDS011;42360;42.918;12.366;2024-02-28T04:00:02;4.25;;;1.90;;
56457;SDS011;42360;42.918;12.366;2024-02-28T04:02:29;4.05;;;2.00;;
56457;SDS011;42360;42.918;12.366;2024-02-28T04:04:57;9.52;;;2.13;;
56457;SDS011;42360;42.918;12.366;2024-02-28T04:07:23;3.30;;;1.58;;
56457;SDS011;42360;42.918;12.366;2024-02-28T04:09:48;4.60;;;1.70;;
56457;SDS011;42360;42.918;12.366;2024-02-28T04:12:14;6.88;;;1.92;;
56457;SDS011;42360;42.918;12.366;2024-02-28T04:14:39;9.15;;;2.47;;
56457;SDS011;42360;42.918;12.366;2024-02-28T04:17:04;6.03;;;1.67;;
56457;SDS011;42360;42.918;12.366;2024-02-28T04:19:33;10.48;;;2.00;;
56457;SDS011;42360;42.918;12.366;2024-02-28T04:22:02;5.30;;;1.75;;
56457;SDS011;42360;42.918;12.366;2024-02-28T04:24:28;6.05;;;1.88;;
56457;SDS011;42360;42.918;12.366;2024-02-28T04:26:53;5.50;;;1.75;;
56457;SDS011;42360;42.918;12.366;2024-02-28T04:29:19;6.72;;;1.73;;
56457;SDS011;42360;42.918;12.366;2024-02-28T04:31:44;5.53;;;1.95;;
56457;SDS011;42360;42.918;12.366;2024-02-28T04:34:10;9.82;;;1.92;;
56457;SDS011;42360;42.918;12.366;2024-02-28T04:36:35;9.32;;;2.20;;
56457;SDS011;42360;42.918;12.366;2024-02-28T04:39:01;4.35;;;1.90;;
56457;SDS011;42360;42.918;12.366;2024-02-28T04:41:27;5.03;;;1.85;;
56457;SDS011;42360;42.918;12.366;2024-02-28T04:43:53;4.38;;;1.75;;
56457;SDS011;42360;42.918;12.366;2024-02-28T04:46:19;9.15;;;1.88;;
56457;SDS011;42360;42.918;12.366;2024-02-28T04:48:44;3.33;;;1.67;;
56457;SDS011;42360;42.918;12.366;2024-02-28T04:51:14;5.90;;;1.55;;
56457;SDS011;42360;42.918;12.366;2024-02-28T04:53:41;4.10;;;1.35;;
56457;SDS011;42360;42.918;12.366;2024-02-28T04:56:07;1.92;;;1.30;;
56457;SDS011;42360;42.918;12.366;2024-02-28T04:58:32;3.95;;;1.48;;
56457;SDS011;42360;42.918;12.366;2024-02-28T05:00:57;8.32;;;1.90;;
56457;SDS011;42360;42.918;12.366;2024-02-28T05:03:23;6.03;;;1.90;;
56457;SDS011;42360;42.918;12.366;2024-02-28T05:05:50;7.00;;;1.65;;
56457;SDS011;42360;42.918;12.366;2024-02-28T05:08:15;5.15;;;1.50;;
56457;SDS011;42360;42.918;12.366;2024-02-28T05:10:41;6.40;;;2.05;;
56457;SDS011;42360;42.918;12.366;2024-02-28T05:13:07;6.63;;;1.92;;
56457;SDS011;42360;42.918;12.366;2024-02-28T05:15:32;6.00;;;1.95;;
56457;SDS011;42360;42.918;12.366;2024-02-28T05:17:58;2.50;;;1.60;;
56457;SDS011;42360;42.918;12.366;2024-02-28T05:20:23;2.60;;;1.65;;
56457;SDS011;42360;42.918;12.366;2024-02-28T05:22:49;9.07;;;2.67;;
56457;SDS011;42360;42.918;12.366;2024-02-28T05:25:14;5.90;;;1.85;;
56457;SDS011;42360;42.918;12.366;2024-02-28T05:27:40;6.22;;;1.92;;
56457;SDS011;42360;42.918;12.366;2024-02-28T05:30:05;4.95;;;2.10;;
56457;SDS011;42360;42.918;12.366;2024-02-28T05:32:32;4.75;;;2.10;;
56457;SDS011;42360;42.918;12.366;2024-02-28T05:34:58;5.07;;;1.83;;
56457;SDS011;42360;42.918;12.366;2024-02-28T05:37:23;5.18;;;1.85;;
56457;SDS011;42360;42.918;12.366;2024-02-28T05:39:50;4.53;;;2.13;;
56457;SDS011;42360;42.918;12.366;2024-02-28T05:42:15;5.00;;;1.88;;
56457;SDS011;42360;42.918;12.366;2024-02-28T05:44:46;5.78;;;2.05;;
56457;SDS011;42360;42.918;12.366;2024-02-28T05:47:15;4.75;;;2.67;;
56457;SDS011;42360;42.918;12.366;2024-02-28T05:49:41;5.38;;;2.97;;
56457;SDS011;42360;42.918;12.366;2024-02-28T05:52:06;3.72;;;2.35;;
56457;SDS011;42360;42.918;12.366;2024-02-28T05:54:32;8.68;;;2.80;;
56457;SDS011;42360;42.918;12.366;2024-02-28T05:56:59;5.60;;;2.10;;
56457;SDS011;42360;42.918;12.366;2024-02-28T05:59:25;6.60;;;2.33;;
56457;SDS011;42360;42.918;12.366;2024-02-28T06:01:50;7.32;;;2.47;;
56457;SDS011;42360;42.918;12.366;2024-02-28T06:04:16;6.72;;;2.58;;
56457;SDS011;42360;42.918;12.366;2024-02-28T06:06:41;6.90;;;3.08;;
56457;SDS011;42360;42.918;12.366;2024-02-28T06:09:07;3.55;;;1.30;;
56457;SDS011;42360;42.918;12.366;2024-02-28T06:11:32;2.47;;;0.95;;
56457;SDS011;42360;42.918;12.366;2024-02-28T06:13:58;8.55;;;1.83;;
56457;SDS011;42360;42.918;12.366;2024-02-28T06:16:24;6.80;;;1.85;;
56457;SDS011;42360;42.918;12.366;2024-02-28T06:18:49;6.70;;;1.80;;
56457;SDS011;42360;42.918;12.366;2024-02-28T06:21:15;4.00;;;1.90;;
56457;SDS011;42360;42.918;12.366;2024-02-28T06:23:41;6.72;;;2.10;;
56457;SDS011;42360;42.918;12.366;2024-02-28T06:26:06;3.67;;;1.70;;
56457;SDS011;42360;42.918;12.366;2024-02-28T06:28:32;6.72;;;2.10;;
56457;SDS011;42360;42.918;12.366;2024-02-28T06:30:57;7.72;;;1.98;;
56457;SDS011;42360;42.918;12.366;2024-02-28T06:33:23;7.05;;;2.05;;
56457;SDS011;42360;42.918;12.366;2024-02-28T06:35:48;5.53;;;1.95;;
56457;SDS011;42360;42.918;12.366;2024-02-28T06:38:14;7.20;;;2.85;;
56457;SDS011;42360;42.918;12.366;2024-02-28T06:40:40;13.82;;;5.85;;
56457;SDS011;42360;42.918;12.366;2024-02-28T06:43:06;101.82;;;51.88;;
56457;SDS011;42360;42.918;12.366;2024-02-28T06:45:31;73.93;;;41.28;;
56457;SDS011;42360;42.918;12.366;2024-02-28T06:47:57;32.20;;;18.02;;
56457;SDS011;42360;42.918;12.366;2024-02-28T06:50:23;15.25;;;7.82;;
56457;SDS011;42360;42.918;12.366;2024-02-28T06:52:48;19.48;;;9.13;;
56457;SDS011;42360;42.918;12.366;2024-02-28T06:55:14;10.77;;;6.63;;
56457;SDS011;42360;42.918;12.366;2024-02-28T06:57:40;21.40;;;10.35;;
56457;SDS011;42360;42.918;12.366;2024-02-28T07:00:07;14.95;;;7.20;;
56457;SDS011;42360;42.918;12.366;2024-02-28T07:02:37;16.33;;;8.82;;
56457;SDS011;42360;42.918;12.366;2024-02-28T07:05:02;5.88;;;3.47;;
56457;SDS011;42360;42.918;12.366;2024-02-28T07:07:29;13.23;;;5.50;;
56457;SDS011;42360;42.918;12.366;2024-02-28T07:09:58;8.85;;;5.45;;
56457;SDS011;42360;42.918;12.366;2024-02-28T07:12:23;11.93;;;5.60;;
56457;SDS011;42360;42.918;12.366;2024-02-28T07:14:52;6.50;;;3.72;;
56457;SDS011;42360;42.918;12.366;2024-02-28T07:17:17;4.43;;;1.80;;
56457;SDS011;42360;42.918;12.366;2024-02-28T07:19:43;9.27;;;3.20;;
56457;SDS011;42360;42.918;12.366;2024-02-28T07:22:09;4.25;;;3.55;;
56457;SDS011;42360;42.918;12.366;2024-02-28T07:24:34;25.27;;;15.88;;
56457;SDS011;42360;42.918;12.366;2024-02-28T07:27:00;13.40;;;9.25;;
56457;SDS011;42360;42.918;12.366;2024-02-28T07:29:25;9.63;;;4.38;;
56457;SDS011;42360;42.918;12.366;2024-02-28T07:31:51;9.40;;;5.28;;
56457;SDS011;42360;42.918;12.366;2024-02-28T07:34:16;6.72;;;3.35;;
56457;SDS011;42360;42.918;12.366;2024-02-28T07:36:42;9.70;;;4.20;;
56457;SDS011;42360;42.918;12.366;2024-02-28T07:39:07;12.02;;;4.35;;
56457;SDS011;42360;42.918;12.366;2024-02-28T07:41:37;4.63;;;2.40;;
56457;SDS011;42360;42.918;12.366;2024-02-28T07:44:06;8.85;;;3.10;;
56457;SDS011;42360;42.918;12.366;2024-02-28T07:46:32;5.78;;;2.60;;
56457;SDS011;42360;42.918;12.366;2024-02-28T07:48:58;8.13;;;3.22;;
56457;SDS011;42360;42.918;12.366;2024-02-28T07:51:24;7.25;;;3.33;;
56457;SDS011;42360;42.918;12.366;2024-02-28T07:53:49;5.70;;;2.70;;
56457;SDS011;42360;42.918;12.366;2024-02-28T07:56:18;8.15;;;4.13;;
56457;SDS011;42360;42.918;12.366;2024-02-28T07:58:44;4.32;;;2.72;;
56457;SDS011;42360;42.918;12.366;2024-02-28T08:01:10;5.10;;;2.63;;
56457;SDS011;42360;42.918;12.366;2024-02-28T08:03:35;8.85;;;4.53;;
56457;SDS011;42360;42.918;12.366;2024-02-28T08:06:01;6.65;;;3.55;;
56457;SDS011;42360;42.918;12.366;2024-02-28T08:08:26;8.25;;;3.05;;
56457;SDS011;42360;42.918;12.366;2024-02-28T08:10:52;10.15;;;4.30;;
56457;SDS011;42360;42.918;12.366;2024-02-28T08:13:18;8.18;;;3.78;;
56457;SDS011;42360;42.918;12.366;2024-02-28T08:15:44;10.95;;;4.22;;
56457;SDS011;42360;42.918;12.366;2024-02-28T08:18:09;8.68;;;5.25;;
56457;SDS011;42360;42.918;12.366;2024-02-28T08:20:36;6.50;;;3.30;;
56457;SDS011;42360;42.918;12.366;2024-02-28T08:23:02;7.68;;;3.70;;
56457;SDS011;42360;42.918;12.366;2024-02-28T08:25:29;7.53;;;3.83;;
56457;SDS011;42360;42.918;12.366;2024-02-28T08:27:57;8.48;;;3.50;;
56457;SDS011;42360;42.918;12.366;2024-02-28T08:30:23;9.32;;;3.85;;
56457;SDS011;42360;42.918;12.366;2024-02-28T08:32:49;7.10;;;3.53;;
56457;SDS011;42360;42.918;12.366;2024-02-28T08:35:14;10.07;;;3.88;;
56457;SDS011;42360;42.918;12.366;2024-02-28T08:37:40;11.25;;;3.30;;
56457;SDS011;42360;42.918;12.366;2024-02-28T08:40:06;7.38;;;3.70;;
56457;SDS011;42360;42.918;12.366;2024-02-28T08:42:32;6.05;;;3.67;;
56457;SDS011;42360;42.918;12.366;2024-02-28T08:44:57;9.15;;;4.65;;
56457;SDS011;42360;42.918;12.366;2024-02-28T08:47:24;12.27;;;5.28;;
56457;SDS011;42360;42.918;12.366;2024-02-28T08:49:51;12.57;;;5.03;;
56457;SDS011;42360;42.918;12.366;2024-02-28T08:52:17;9.35;;;5.28;;
56457;SDS011;42360;42.918;12.366;2024-02-28T08:54:42;12.30;;;5.88;;
56457;SDS011;42360;42.918;12.366;2024-02-28T08:57:08;9.68;;;4.40;;
56457;SDS011;42360;42.918;12.366;2024-02-28T08:59:33;10.25;;;4.72;;
56457;SDS011;42360;42.918;12.366;2024-02-28T09:01:59;8.55;;;4.10;;
56457;SDS011;42360;42.918;12.366;2024-02-28T09:04:24;8.13;;;4.15;;
56457;SDS011;42360;42.918;12.366;2024-02-28T09:06:50;9.55;;;3.67;;
56457;SDS011;42360;42.918;12.366;2024-02-28T09:09:18;6.10;;;4.20;;
56457;SDS011;42360;42.918;12.366;2024-02-28T09:11:43;11.07;;;6.05;;
56457;SDS011;42360;42.918;12.366;2024-02-28T09:14:09;14.55;;;4.70;;
56457;SDS011;42360;42.918;12.366;2024-02-28T09:16:34;23.90;;;13.10;;
56457;SDS011;42360;42.918;12.366;2024-02-28T09:19:00;18.25;;;7.03;;
56457;SDS011;42360;42.918;12.366;2024-02-28T09:21:25;8.07;;;4.72;;
56457;SDS011;42360;42.918;12.366;2024-02-28T09:23:51;29.70;;;15.27;;
56457;SDS011;42360;42.918;12.366;2024-02-28T09:26:16;19.20;;;9.50;;
56457;SDS011;42360;42.918;12.366;2024-02-28T09:28:42;36.90;;;22.38;;
56457;SDS011;42360;42.918;12.366;2024-02-28T09:31:07;26.95;;;14.68;;
56457;SDS011;42360;42.918;12.366;2024-02-28T09:33:34;18.75;;;9.45;;
56457;SDS011;42360;42.918;12.366;2024-02-28T09:36:01;9.35;;;3.70;;
56457;SDS011;42360;42.918;12.366;2024-02-28T09:38:27;7.82;;;3.35;;
56457;SDS011;42360;42.918;12.366;2024-02-28T09:40:54;9.57;;;4.20;;
56457;SDS011;42360;42.918;12.366;2024-02-28T09:43:24;12.20;;;4.13;;
56457;SDS011;42360;42.918;12.366;2024-02-28T09:45:59;6.28;;;3.55;;
56457;SDS011;42360;42.918;12.366;2024-02-28T09:48:28;8.52;;;3.20;;
56457;SDS011;42360;42.918;12.366;2024-02-28T09:50:54;9.88;;;3.58;;
56457;SDS011;42360;42.918;12.366;2024-02-28T09:53:21;10.52;;;3.83;;
56457;SDS011;42360;42.918;12.366;2024-02-28T09:55:47;9.43;;;3.50;;
56457;SDS011;42360;42.918;12.366;2024-02-28T09:58:14;12.57;;;3.75;;
56457;SDS011;42360;42.918;12.366;2024-02-28T10:00:40;7.35;;;3.40;;
56457;SDS011;42360;42.918;12.366;2024-02-28T10:03:09;11.18;;;3.70;;
56457;SDS011;42360;42.918;12.366;2024-02-28T10:05:37;10.55;;;5.05;;
56457;SDS011;42360;42.918;12.366;2024-02-28T10:08:04;15.65;;;4.53;;
56457;SDS011;42360;42.918;12.366;2024-02-28T10:10:30;8.55;;;3.10;;
56457;SDS011;42360;42.918;12.366;2024-02-28T10:12:56;12.18;;;3.25;;
56457;SDS011;42360;42.918;12.366;2024-02-28T10:15:21;9.43;;;3.45;;
56457;SDS011;42360;42.918;12.366;2024-02-28T10:17:47;6.50;;;3.85;;
56457;SDS011;42360;42.918;12.366;2024-02-28T10:20:13;8.73;;;3.13;;
56457;SDS011;42360;42.918;12.366;2024-02-28T10:22:39;9.55;;;3.90;;
56457;SDS011;42360;42.918;12.366;2024-02-28T10:25:05;8.55;;;3.40;;
56457;SDS011;42360;42.918;12.366;2024-02-28T10:27:34;14.77;;;4.50;;
56457;SDS011;42360;42.918;12.366;2024-02-28T10:30:00;11.52;;;3.55;;
56457;SDS011;42360;42.918;12.366;2024-02-28T10:32:32;10.15;;;3.30;;
56457;SDS011;42360;42.918;12.366;2024-02-28T10:35:00;9.95;;;3.72;;
56457;SDS011;42360;42.918;12.366;2024-02-28T10:37:26;11.30;;;4.45;;
56457;SDS011;42360;42.918;12.366;2024-02-28T10:39:56;12.05;;;3.13;;
56457;SDS011;42360;42.918;12.366;2024-02-28T10:42:22;17.10;;;3.50;;
56457;SDS011;42360;42.918;12.366;2024-02-28T10:44:49;7.40;;;3.40;;
56457;SDS011;42360;42.918;12.366;2024-02-28T10:47:18;10.40;;;3.60;;
56457;SDS011;42360;42.918;12.366;2024-02-28T10:49:44;13.05;;;4.13;;
56457;SDS011;42360;42.918;12.366;2024-02-28T10:52:10;10.68;;;5.03;;
56457;SDS011;42360;42.918;12.366;2024-02-28T10:54:38;14.40;;;4.53;;
56457;SDS011;42360;42.918;12.366;2024-02-28T10:57:07;10.68;;;3.22;;
56457;SDS011;42360;42.918;12.366;2024-02-28T10:59:33;19.60;;;4.00;;
56457;SDS011;42360;42.918;12.366;2024-02-28T11:02:00;15.95;;;4.07;;
56457;SDS011;42360;42.918;12.366;2024-02-28T11:04:27;14.00;;;4.20;;
56457;SDS011;42360;42.918;12.366;2024-02-28T11:06:56;19.10;;;4.47;;
56457;SDS011;42360;42.918;12.366;2024-02-28T11:09:22;11.77;;;3.70;;
56457;SDS011;42360;42.918;12.366;2024-02-28T11:11:50;16.58;;;3.88;;
56457;SDS011;42360;42.918;12.366;2024-02-28T11:14:17;11.27;;;3.38;;
56457;SDS011;42360;42.918;12.366;2024-02-28T11:16:42;20.88;;;4.75;;
56457;SDS011;42360;42.918;12.366;2024-02-28T11:19:18;15.38;;;4.03;;
56457;SDS011;42360;42.918;12.366;2024-02-28T11:21:54;10.30;;;4.63;;
56457;SDS011;42360;42.918;12.366;2024-02-28T11:24:23;16.90;;;4.68;;
56457;SDS011;42360;42.918;12.366;2024-02-28T11:26:56;12.13;;;4.05;;
56457;SDS011;42360;42.918;12.366;2024-02-28T11:29:25;14.10;;;3.78;;
56457;SDS011;42360;42.918;12.366;2024-02-28T11:31:53;14.80;;;5.03;;
56457;SDS011;42360;42.918;12.366;2024-02-28T11:34:19;12.15;;;4.38;;
56457;SDS011;42360;42.918;12.366;2024-02-28T11:36:48;15.52;;;5.80;;
56457;SDS011;42360;42.918;12.366;2024-02-28T11:39:15;12.38;;;5.40;;
56457;SDS011;42360;42.918;12.366;2024-02-28T11:41:41;20.52;;;7.32;;
56457;SDS011;42360;42.918;12.366;2024-02-28T11:44:06;18.50;;;7.18;;
56457;SDS011;42360;42.918;12.366;2024-02-28T11:46:32;16.17;;;5.68;;
56457;SDS011;42360;42.918;12.366;2024-02-28T11:48:58;14.52;;;4.40;;
56457;SDS011;42360;42.918;12.366;2024-02-28T11:51:23;14.90;;;3.70;;
56457;SDS011;42360;42.918;12.366;2024-02-28T11:53:49;11.98;;;3.72;;
56457;SDS011;42360;42.918;12.366;2024-02-28T11:56:15;12.18;;;4.35;;
56457;SDS011;42360;42.918;12.366;2024-02-28T11:58:51;14.40;;;3.65;;
56457;SDS011;42360;42.918;12.366;2024-02-28T12:01:17;18.60;;;5.47;;
56457;SDS011;42360;42.918;12.366;2024-02-28T12:03:45;19.80;;;6.40;;
56457;SDS011;42360;42.918;12.366;2024-02-28T12:06:11;30.33;;;12.30;;
56457;SDS011;42360;42.918;12.366;2024-02-28T12:08:37;36.90;;;14.93;;
56457;SDS011;42360;42.918;12.366;2024-02-28T12:11:06;19.55;;;8.00;;
56457;SDS011;42360;42.918;12.366;2024-02-28T12:13:33;12.82;;;5.43;;
56457;SDS011;42360;42.918;12.366;2024-02-28T12:15:58;23.15;;;5.43;;
56457;SDS011;42360;42.918;12.366;2024-02-28T12:18:26;14.50;;;5.63;;
56457;SDS011;42360;42.918;12.366;2024-02-28T12:20:52;13.65;;;3.65;;
56457;SDS011;42360;42.918;12.366;2024-02-28T12:23:18;8.45;;;3.25;;
56457;SDS011;42360;42.918;12.366;2024-02-28T12:25:43;14.98;;;4.30;;
56457;SDS011;42360;42.918;12.366;2024-02-28T12:28:09;16.02;;;4.78;;
56457;SDS011;42360;42.918;12.366;2024-02-28T12:30:44;19.70;;;4.68;;
56457;SDS011;42360;42.918;12.366;2024-02-28T12:33:10;19.88;;;4.78;;
56457;SDS011;42360;42.918;12.366;2024-02-28T12:35:38;18.38;;;4.28;;
56457;SDS011;42360;42.918;12.366;2024-02-28T12:38:04;13.15;;;3.47;;
56457;SDS011;42360;42.918;12.366;2024-02-28T12:40:32;15.27;;;4.07;;
56457;SDS011;42360;42.918;12.366;2024-02-28T12:42:58;17.80;;;4.22;;
56457;SDS011;42360;42.918;12.366;2024-02-28T12:45:23;14.02;;;3.42;;
56457;SDS011;42360;42.918;12.366;2024-02-28T12:47:49;14.15;;;3.47;;
56457;SDS011;42360;42.918;12.366;2024-02-28T12:50:14;9.20;;;2.88;;
56457;SDS011;42360;42.918;12.366;2024-02-28T12:52:40;10.85;;;3.97;;
56457;SDS011;42360;42.918;12.366;2024-02-28T12:55:05;14.70;;;3.15;;
56457;SDS011;42360;42.918;12.366;2024-02-28T12:57:31;10.50;;;3.13;;
56457;SDS011;42360;42.918;12.366;2024-02-28T12:59:56;13.13;;;3.33;;
56457;SDS011;42360;42.918;12.366;2024-02-28T13:02:22;13.57;;;3.47;;
56457;SDS011;42360;42.918;12.366;2024-02-28T13:04:47;11.23;;;2.67;;
56457;SDS011;42360;42.918;12.366;2024-02-28T13:07:14;11.80;;;2.80;;
56457;SDS011;42360;42.918;12.366;2024-02-28T13:09:40;9.93;;;2.58;;
56457;SDS011;42360;42.918;12.366;2024-02-28T13:12:06;7.00;;;2.65;;
56457;SDS011;42360;42.918;12.366;2024-02-28T13:14:33;14.93;;;4.43;;
56457;SDS011;42360;42.918;12.366;2024-02-28T13:16:59;24.80;;;10.07;;
56457;SDS011;42360;42.918;12.366;2024-02-28T13:19:24;21.85;;;10.35;;
56457;SDS011;42360;42.918;12.366;2024-02-28T13:21:50;16.25;;;7.18;;
56457;SDS011;42360;42.918;12.366;2024-02-28T13:24:15;10.68;;;3.35;;
56457;SDS011;42360;42.918;12.366;2024-02-28T13:26:41;12.88;;;3.22;;
56457;SDS011;42360;42.918;12.366;2024-02-28T13:29:07;13.00;;;3.30;;
56457;SDS011;42360;42.918;12.366;2024-02-28T13:31:32;13.85;;;3.08;;
56457;SDS011;42360;42.918;12.366;2024-02-28T13:33:59;12.65;;;3.00;;
56457;SDS011;42360;42.918;12.366;2024-02-28T13:36:25;9.57;;;3.05;;
56457;SDS011;42360;42.918;12.366;2024-02-28T13:38:51;13.75;;;3.63;;
56457;SDS011;42360;42.918;12.366;2024-02-28T13:41:16;8.77;;;2.83;;
56457;SDS011;42360;42.918;12.366;2024-02-28T13:43:42;10.85;;;2.72;;
56457;SDS011;42360;42.918;12.366;2024-02-28T13:46:07;9.45;;;3.10;;
56457;SDS011;42360;42.918;12.366;2024-02-28T13:48:35;13.90;;;3.00;;
56457;SDS011;42360;42.918;12.366;2024-02-28T13:51:00;13.68;;;3.47;;
56457;SDS011;42360;42.918;12.366;2024-02-28T13:53:29;11.07;;;2.67;;
56457;SDS011;42360;42.918;12.366;2024-02-28T13:55:54;10.57;;;2.58;;
56457;SDS011;42360;42.918;12.366;2024-02-28T13:58:20;13.27;;;3.30;;
56457;SDS011;42360;42.918;12.366;2024-02-28T14:00:45;9.27;;;2.08;;
56457;SDS011;42360;42.918;12.366;2024-02-28T14:03:12;10.48;;;2.38;;
56457;SDS011;42360;42.918;12.366;2024-02-28T14:05:38;9.20;;;2.63;;
56457;SDS011;42360;42.918;12.366;2024-02-28T14:08:04;11.70;;;4.10;;
56457;SDS011;42360;42.918;12.366;2024-02-28T14:10:32;12.32;;;2.63;;
56457;SDS011;42360;42.918;12.366;2024-02-28T14:12:58;10.70;;;3.00;;
56457;SDS011;42360;42.918;12.366;2024-02-28T14:15:24;13.75;;;2.65;;
56457;SDS011;42360;42.918;12.366;2024-02-28T14:17:50;10.38;;;2.92;;
56457;SDS011;42360;42.918;12.366;2024-02-28T14:20:16;17.13;;;2.50;;
56457;SDS011;42360;42.918;12.366;2024-02-28T14:22:42;11.35;;;2.20;;